BRU1266 UMMS-LTFM
Flight info
| Callsign | BRU1266 |
|---|---|
| Flight time | N/A |
| Altitude | 37000 |
| Route | SORFO2G SORFO L979 ASKIL L736 LODKU M56 ABAGI B105 NIMTA/K0878F380 B105 NATIT/K0878F370 DCT MOLED DCT LIDUS/K0885F380 G242 ZG/K0893F370 DCT ITAKA/K0895F380 DCT KUDAS DCT PINMU A955 LURIS/N0481F380 DCT KUSSA DCT IZERO UL21 TBN UM11 CRM UM688 EKSUK UL852 TIVUG UM10 HAKAN/N0453F280 N644 GUMRU T315 NUGBA |
| Aircraft | A332/H-SDE3GHIJ2J3J5M1RVWXY/LB2D1 |
Departure
| Time | 2026-05-06 13:56 |
|---|---|
| Airport | Minsk National Airport (UMMS) |
Arrival
| Time | N/A |
|---|---|
| Airport | İstanbul Airport (LTFM) |
| Time | Latitude | Longitude | Altitude | Speed | Heading |
|---|---|---|---|---|---|
| 2026-05-06 13:50 | 53.88545 | 28.02615 | 637 ft | 39 kts | 137° |
| 2026-05-06 13:50 | 53.88347 | 28.02917 | 643 ft | 37 kts | 139° |
| 2026-05-06 13:50 | 53.88320 | 28.03161 | 644 ft | 25 kts | 46° |
| 2026-05-06 13:51 | 53.88436 | 28.03384 | 646 ft | 25 kts | 49° |
| 2026-05-06 13:51 | 53.88550 | 28.03608 | 644 ft | 25 kts | 50° |
| 2026-05-06 13:51 | 53.88664 | 28.03833 | 642 ft | 25 kts | 47° |
| 2026-05-06 13:51 | 53.88782 | 28.04054 | 646 ft | 25 kts | 48° |
| 2026-05-06 13:52 | 53.88900 | 28.04278 | 644 ft | 25 kts | 49° |
| 2026-05-06 13:52 | 53.89015 | 28.04506 | 645 ft | 25 kts | 50° |
| 2026-05-06 13:52 | 53.89132 | 28.04734 | 640 ft | 25 kts | 48° |
| 2026-05-06 13:52 | 53.89250 | 28.04823 | 643 ft | 11 kts | 327° |
| 2026-05-06 13:53 | 53.89330 | 28.04700 | 642 ft | 26 kts | 318° |
| 2026-05-06 13:53 | 53.89520 | 28.04411 | 646 ft | 43 kts | 319° |
| 2026-05-06 13:53 | 53.89736 | 28.04086 | 646 ft | 41 kts | 318° |
| 2026-05-06 13:53 | 53.89948 | 28.03773 | 647 ft | 39 kts | 317° |
| 2026-05-06 13:54 | 53.90148 | 28.03470 | 641 ft | 38 kts | 318° |
| 2026-05-06 13:54 | 53.90341 | 28.03183 | 644 ft | 36 kts | 320° |
| 2026-05-06 13:54 | 53.90450 | 28.03198 | 646 ft | 14 kts | 39° |
| 2026-05-06 13:54 | 53.90490 | 28.03343 | 638 ft | 15 kts | 97° |
| 2026-05-06 13:55 | 53.90429 | 28.03470 | 644 ft | 14 kts | 139° |
| 2026-05-06 13:55 | 53.90285 | 28.03684 | 647 ft | 52 kts | 139° |
| 2026-05-06 13:55 | 53.89862 | 28.04316 | 643 ft | 108 kts | 138° |
| 2026-05-06 13:55 | 53.89162 | 28.05354 | 640 ft | 158 kts | 139° |
| 2026-05-06 13:56 | 53.88252 | 28.06706 | 983 ft | 180 kts | 141° |
| 2026-05-06 13:56 | 53.87277 | 28.08158 | 1570 ft | 194 kts | 144° |
| 2026-05-06 13:56 | 53.86215 | 28.09702 | 2182 ft | 205 kts | 144° |
| 2026-05-06 13:56 | 53.85133 | 28.11280 | 2522 ft | 205 kts | 144° |
| 2026-05-06 13:57 | 53.84065 | 28.12850 | 2900 ft | 207 kts | 144° |
| 2026-05-06 13:57 | 53.82985 | 28.14470 | 3332 ft | 208 kts | 143° |
| 2026-05-06 13:57 | 53.81909 | 28.16127 | 3753 ft | 210 kts | 143° |
| 2026-05-06 13:57 | 53.80843 | 28.17824 | 4185 ft | 211 kts | 142° |
| 2026-05-06 13:58 | 53.79786 | 28.19570 | 4633 ft | 214 kts | 141° |
| 2026-05-06 13:58 | 53.78728 | 28.21343 | 5083 ft | 215 kts | 141° |
| 2026-05-06 13:58 | 53.77658 | 28.23132 | 5543 ft | 217 kts | 141° |
| 2026-05-06 13:58 | 53.76593 | 28.24935 | 5972 ft | 218 kts | 136° |
| 2026-05-06 13:59 | 53.75747 | 28.27157 | 6361 ft | 236 kts | 114° |
| 2026-05-06 13:59 | 53.75577 | 28.29909 | 7010 ft | 245 kts | 82° |
| 2026-05-06 13:59 | 53.76071 | 28.32675 | 7774 ft | 246 kts | 71° |
| 2026-05-06 13:59 | 53.76725 | 28.35365 | 8447 ft | 249 kts | 69° |
| 2026-05-06 14:00 | 53.77417 | 28.38081 | 9092 ft | 254 kts | 69° |
| 2026-05-06 14:00 | 53.78120 | 28.40842 | 9735 ft | 258 kts | 69° |
| 2026-05-06 14:00 | 53.78831 | 28.43654 | 10279 ft | 261 kts | 69° |
| 2026-05-06 14:00 | 53.79545 | 28.46493 | 10858 ft | 263 kts | 69° |
| 2026-05-06 14:01 | 53.80264 | 28.49359 | 11436 ft | 266 kts | 69° |
| 2026-05-06 14:01 | 53.80987 | 28.52252 | 12003 ft | 268 kts | 69° |
| 2026-05-06 14:01 | 53.81718 | 28.55180 | 12555 ft | 271 kts | 69° |
| 2026-05-06 14:01 | 53.82444 | 28.58096 | 13092 ft | 274 kts | 69° |
| 2026-05-06 14:02 | 53.83340 | 28.60977 | 13572 ft | 280 kts | 49° |
| 2026-05-06 14:02 | 53.84898 | 28.62877 | 13967 ft | 277 kts | 14° |
| 2026-05-06 14:02 | 53.86774 | 28.63624 | 14359 ft | 280 kts | 4° |
| 2026-05-06 14:02 | 53.88746 | 28.64124 | 14613 ft | 293 kts | 4° |
| 2026-05-06 14:03 | 53.90786 | 28.64621 | 15026 ft | 299 kts | 4° |
| 2026-05-06 14:03 | 53.92858 | 28.65149 | 15485 ft | 304 kts | 4° |
| 2026-05-06 14:03 | 53.94987 | 28.65708 | 15827 ft | 314 kts | 5° |
| 2026-05-06 14:03 | 53.97161 | 28.66293 | 16292 ft | 319 kts | 5° |
| 2026-05-06 14:04 | 53.99367 | 28.66895 | 16804 ft | 322 kts | 5° |
| 2026-05-06 14:04 | 54.01588 | 28.67505 | 17313 ft | 325 kts | 5° |
| 2026-05-06 14:04 | 54.03831 | 28.68122 | 17820 ft | 328 kts | 5° |
| 2026-05-06 14:04 | 54.06097 | 28.68747 | 18290 ft | 331 kts | 5° |
| 2026-05-06 14:05 | 54.08345 | 28.69427 | 18742 ft | 334 kts | 10° |
| 2026-05-06 14:05 | 54.10529 | 28.70821 | 19205 ft | 339 kts | 28° |
| 2026-05-06 14:05 | 54.12426 | 28.73233 | 19655 ft | 342 kts | 41° |
| 2026-05-06 14:05 | 54.14168 | 28.76006 | 20133 ft | 343 kts | 43° |
| 2026-05-06 14:06 | 54.15891 | 28.78847 | 20580 ft | 345 kts | 43° |
| 2026-05-06 14:06 | 54.17630 | 28.81717 | 20964 ft | 349 kts | 43° |
| 2026-05-06 14:06 | 54.19382 | 28.84598 | 21410 ft | 350 kts | 43° |
| 2026-05-06 14:06 | 54.21140 | 28.87481 | 21865 ft | 352 kts | 43° |
| 2026-05-06 14:07 | 54.22910 | 28.90383 | 22324 ft | 353 kts | 43° |
| 2026-05-06 14:07 | 54.24687 | 28.93294 | 22778 ft | 354 kts | 43° |
| 2026-05-06 14:07 | 54.26464 | 28.96217 | 23224 ft | 355 kts | 44° |
| 2026-05-06 14:07 | 54.28120 | 28.99379 | 23594 ft | 357 kts | 53° |
| 2026-05-06 14:08 | 54.29422 | 29.03003 | 23929 ft | 359 kts | 66° |
| 2026-05-06 14:08 | 54.30267 | 29.06966 | 24247 ft | 359 kts | 77° |
| 2026-05-06 14:08 | 54.30857 | 29.11144 | 24587 ft | 361 kts | 80° |
| 2026-05-06 14:08 | 54.31339 | 29.15369 | 24937 ft | 362 kts | 82° |
| 2026-05-06 14:09 | 54.31772 | 29.19621 | 25274 ft | 363 kts | 82° |
| 2026-05-06 14:09 | 54.32194 | 29.23924 | 25619 ft | 365 kts | 83° |
| 2026-05-06 14:09 | 54.32614 | 29.28163 | 25966 ft | 367 kts | 82° |
| 2026-05-06 14:09 | 54.33052 | 29.32485 | 26295 ft | 368 kts | 82° |
| 2026-05-06 14:10 | 54.33499 | 29.36816 | 26617 ft | 370 kts | 82° |
| 2026-05-06 14:10 | 54.33953 | 29.41167 | 26946 ft | 372 kts | 82° |
| 2026-05-06 14:10 | 54.34412 | 29.45553 | 27266 ft | 374 kts | 82° |
| 2026-05-06 14:10 | 54.34871 | 29.49943 | 27591 ft | 376 kts | 82° |
| 2026-05-06 14:11 | 54.35332 | 29.54359 | 27894 ft | 377 kts | 82° |
| 2026-05-06 14:11 | 54.35793 | 29.58794 | 28223 ft | 378 kts | 82° |
| 2026-05-06 14:11 | 54.36256 | 29.63244 | 28532 ft | 380 kts | 82° |
| 2026-05-06 14:11 | 54.36720 | 29.67710 | 28829 ft | 381 kts | 82° |
| 2026-05-06 14:12 | 54.37188 | 29.72222 | 29028 ft | 386 kts | 82° |
| 2026-05-06 14:12 | 54.37653 | 29.76726 | 29236 ft | 390 kts | 82° |
| 2026-05-06 14:12 | 54.38127 | 29.81328 | 29533 ft | 391 kts | 82° |
| 2026-05-06 14:12 | 54.38599 | 29.85927 | 29897 ft | 391 kts | 82° |
| 2026-05-06 14:13 | 54.39070 | 29.90525 | 30203 ft | 391 kts | 82° |
| 2026-05-06 14:13 | 54.39537 | 29.95117 | 30501 ft | 390 kts | 82° |
| 2026-05-06 14:13 | 54.40001 | 29.99701 | 30791 ft | 390 kts | 82° |
| 2026-05-06 14:13 | 54.40461 | 30.04282 | 31098 ft | 389 kts | 82° |
| 2026-05-06 14:14 | 54.40919 | 30.08865 | 31383 ft | 389 kts | 82° |
| 2026-05-06 14:14 | 54.41374 | 30.13444 | 31657 ft | 388 kts | 82° |
| 2026-05-06 14:14 | 54.41827 | 30.18006 | 31929 ft | 388 kts | 82° |
| 2026-05-06 14:14 | 54.42278 | 30.22572 | 32191 ft | 387 kts | 82° |
| 2026-05-06 14:15 | 54.42725 | 30.27121 | 32510 ft | 385 kts | 82° |
| 2026-05-06 14:15 | 54.43161 | 30.31599 | 32747 ft | 385 kts | 82° |
| 2026-05-06 14:15 | 54.43599 | 30.36142 | 32927 ft | 386 kts | 82° |
| 2026-05-06 14:15 | 54.44038 | 30.40717 | 33106 ft | 388 kts | 82° |
| 2026-05-06 14:16 | 54.44476 | 30.45300 | 33275 ft | 389 kts | 82° |
| 2026-05-06 14:16 | 54.44913 | 30.49888 | 33473 ft | 390 kts | 82° |
| 2026-05-06 14:16 | 54.45350 | 30.54499 | 33647 ft | 391 kts | 82° |
| 2026-05-06 14:16 | 54.45786 | 30.59113 | 33814 ft | 392 kts | 82° |
| 2026-05-06 14:17 | 54.46223 | 30.63751 | 33953 ft | 393 kts | 82° |
| 2026-05-06 14:17 | 54.46659 | 30.68403 | 34079 ft | 395 kts | 82° |
| 2026-05-06 14:17 | 54.47095 | 30.73076 | 34221 ft | 396 kts | 82° |
| 2026-05-06 14:17 | 54.47524 | 30.77696 | 34342 ft | 397 kts | 82° |
| 2026-05-06 14:18 | 54.48397 | 30.87148 | 34511 ft | 403 kts | 81° |
| 2026-05-06 14:18 | 54.48834 | 30.91922 | 34655 ft | 403 kts | 82° |
| 2026-05-06 14:18 | 54.49269 | 30.96678 | 34856 ft | 401 kts | 81° |
| 2026-05-06 14:19 | 54.49700 | 31.01419 | 35017 ft | 401 kts | 81° |
| 2026-05-06 14:19 | 54.50130 | 31.06178 | 35117 ft | 403 kts | 81° |
| 2026-05-06 14:19 | 54.50555 | 31.10958 | 35226 ft | 405 kts | 82° |
| 2026-05-06 14:19 | 54.50970 | 31.15755 | 35345 ft | 406 kts | 82° |
| 2026-05-06 14:20 | 54.51376 | 31.20523 | 35454 ft | 407 kts | 82° |
| 2026-05-06 14:20 | 54.51783 | 31.25349 | 35569 ft | 408 kts | 82° |
| 2026-05-06 14:20 | 54.52189 | 31.30186 | 35675 ft | 409 kts | 82° |
| 2026-05-06 14:20 | 54.52595 | 31.35040 | 35788 ft | 410 kts | 82° |
| 2026-05-06 14:21 | 54.53000 | 31.39896 | 35894 ft | 411 kts | 82° |
| 2026-05-06 14:21 | 54.53404 | 31.44768 | 35998 ft | 412 kts | 82° |
| 2026-05-06 14:21 | 54.53809 | 31.49659 | 36102 ft | 412 kts | 82° |
| 2026-05-06 14:21 | 54.54212 | 31.54560 | 36198 ft | 413 kts | 82° |
| 2026-05-06 14:22 | 54.54614 | 31.59465 | 36303 ft | 414 kts | 82° |
| 2026-05-06 14:22 | 54.55014 | 31.64381 | 36415 ft | 415 kts | 82° |
| 2026-05-06 14:22 | 54.55413 | 31.69294 | 36578 ft | 413 kts | 82° |
| 2026-05-06 14:22 | 54.55808 | 31.74201 | 36687 ft | 414 kts | 82° |
| 2026-05-06 14:23 | 54.56592 | 31.84001 | 36825 ft | 417 kts | 82° |
| 2026-05-06 14:23 | 54.57379 | 31.93947 | 36841 ft | 419 kts | 82° |
| 2026-05-06 14:24 | 54.58160 | 32.03916 | 36841 ft | 420 kts | 83° |
| 2026-05-06 14:24 | 54.58934 | 32.13909 | 36840 ft | 420 kts | 83° |
| 2026-05-06 14:25 | 54.59701 | 32.23920 | 36841 ft | 420 kts | 83° |
| 2026-05-06 14:25 | 54.60453 | 32.33851 | 36833 ft | 420 kts | 83° |
| 2026-05-06 14:26 | 54.61202 | 32.43842 | 36840 ft | 419 kts | 83° |
| 2026-05-06 14:26 | 54.61940 | 32.53818 | 36840 ft | 420 kts | 83° |
| 2026-05-06 14:27 | 54.62673 | 32.63832 | 36841 ft | 420 kts | 83° |
| 2026-05-06 14:27 | 54.63398 | 32.73847 | 36841 ft | 420 kts | 83° |
| 2026-05-06 14:28 | 54.64114 | 32.83870 | 36845 ft | 420 kts | 83° |
| 2026-05-06 14:28 | 54.64816 | 32.93807 | 36843 ft | 420 kts | 83° |
| 2026-05-06 14:29 | 54.65516 | 33.03825 | 36846 ft | 420 kts | 83° |
| 2026-05-06 14:29 | 54.66206 | 33.13839 | 36847 ft | 418 kts | 83° |
| 2026-05-06 14:30 | 54.66885 | 33.23808 | 36848 ft | 418 kts | 83° |
| 2026-05-06 14:30 | 54.67558 | 33.33813 | 36851 ft | 419 kts | 83° |
| 2026-05-06 14:31 | 54.68223 | 33.43832 | 36849 ft | 419 kts | 83° |
| 2026-05-06 14:31 | 54.68770 | 33.52155 | 36848 ft | 419 kts | 83° |
| 2026-05-06 14:32 | 54.69420 | 33.62178 | 36849 ft | 419 kts | 84° |
| 2026-05-06 14:32 | 54.70061 | 33.72196 | 36851 ft | 419 kts | 84° |
| 2026-05-06 14:33 | 54.70695 | 33.82228 | 36859 ft | 420 kts | 84° |
| 2026-05-06 14:33 | 54.71050 | 33.88890 | 37008 ft | 420 kts | 86° |
| 2026-05-06 14:33 | 54.71169 | 33.92295 | 37099 ft | 420 kts | 87° |
| 2026-05-06 14:34 | 54.71299 | 33.97268 | 37216 ft | 419 kts | 88° |
| 2026-05-06 14:34 | 54.71406 | 34.02321 | 37326 ft | 420 kts | 88° |
| 2026-05-06 14:34 | 54.71612 | 34.12462 | 37452 ft | 422 kts | 88° |
| 2026-05-06 14:35 | 54.71835 | 34.22644 | 37625 ft | 424 kts | 88° |
| 2026-05-06 14:35 | 54.72065 | 34.32778 | 37782 ft | 425 kts | 88° |
| 2026-05-06 14:36 | 54.72294 | 34.43021 | 37916 ft | 427 kts | 88° |
| 2026-05-06 14:36 | 54.72514 | 34.53318 | 38021 ft | 429 kts | 88° |
| 2026-05-06 14:37 | 54.72726 | 34.63683 | 38106 ft | 433 kts | 88° |
| 2026-05-06 14:37 | 54.72930 | 34.74126 | 38193 ft | 436 kts | 88° |
| 2026-05-06 14:38 | 54.73127 | 34.84666 | 38211 ft | 441 kts | 88° |
| 2026-05-06 14:38 | 54.73316 | 34.95263 | 38305 ft | 445 kts | 88° |
| 2026-05-06 14:39 | 54.73498 | 35.05984 | 38462 ft | 446 kts | 89° |
| 2026-05-06 14:39 | 54.73670 | 35.16717 | 38713 ft | 444 kts | 89° |
| 2026-05-06 14:40 | 54.73749 | 35.22053 | 38816 ft | 443 kts | 89° |
| 2026-05-06 14:40 | 54.73795 | 35.27391 | 38849 ft | 444 kts | 90° |
| 2026-05-06 14:40 | 54.73817 | 35.38036 | 38854 ft | 444 kts | 90° |
| 2026-05-06 14:41 | 54.73814 | 35.48734 | 38853 ft | 444 kts | 90° |
| 2026-05-06 14:41 | 54.73676 | 35.59331 | 38845 ft | 440 kts | 90° |
| 2026-05-06 14:42 | 54.73719 | 35.70007 | 38853 ft | 445 kts | 90° |
| 2026-05-06 14:42 | 54.73770 | 35.80701 | 38843 ft | 444 kts | 90° |
| 2026-05-06 14:43 | 54.73771 | 35.91310 | 38849 ft | 443 kts | 90° |
| 2026-05-06 14:43 | 54.73740 | 36.02053 | 38851 ft | 444 kts | 91° |
| 2026-05-06 14:44 | 54.73695 | 36.12657 | 38850 ft | 444 kts | 91° |
| 2026-05-06 14:45 | 54.73610 | 36.28688 | 38853 ft | 444 kts | 91° |
| 2026-05-06 14:45 | 54.73540 | 36.39366 | 38853 ft | 444 kts | 91° |
| 2026-05-06 14:46 | 54.73460 | 36.50045 | 38851 ft | 443 kts | 91° |
| 2026-05-06 14:46 | 54.73373 | 36.60697 | 38850 ft | 442 kts | 91° |
| 2026-05-06 14:47 | 54.73282 | 36.71266 | 38850 ft | 442 kts | 91° |
| 2026-05-06 14:47 | 54.73190 | 36.81902 | 38851 ft | 443 kts | 91° |
| 2026-05-06 14:48 | 54.73089 | 36.92575 | 38851 ft | 443 kts | 91° |
| 2026-05-06 14:48 | 54.72978 | 37.03240 | 38853 ft | 443 kts | 91° |
| 2026-05-06 14:49 | 54.72857 | 37.13906 | 38857 ft | 443 kts | 91° |
| 2026-05-06 14:49 | 54.72727 | 37.24574 | 38857 ft | 442 kts | 91° |
| 2026-05-06 14:50 | 54.72337 | 37.35170 | 38857 ft | 441 kts | 102° |
| 2026-05-06 14:50 | 54.70432 | 37.45128 | 38860 ft | 439 kts | 114° |
| 2026-05-06 14:51 | 54.67883 | 37.54739 | 38859 ft | 440 kts | 117° |
| 2026-05-06 14:51 | 54.65215 | 37.64256 | 38862 ft | 440 kts | 117° |
| 2026-05-06 14:52 | 54.62554 | 37.73759 | 38859 ft | 439 kts | 117° |
| 2026-05-06 14:52 | 54.59914 | 37.83251 | 38862 ft | 438 kts | 117° |
| 2026-05-06 14:53 | 54.57277 | 37.92732 | 38863 ft | 438 kts | 117° |
| 2026-05-06 14:53 | 54.54658 | 38.02116 | 38862 ft | 438 kts | 117° |
| 2026-05-06 14:54 | 54.52007 | 38.11570 | 38863 ft | 438 kts | 117° |
| 2026-05-06 14:54 | 54.49680 | 38.21233 | 38864 ft | 438 kts | 106° |
| 2026-05-06 14:55 | 54.48198 | 38.31383 | 38863 ft | 438 kts | 103° |
| 2026-05-06 14:55 | 54.46873 | 38.41658 | 38858 ft | 443 kts | 103° |
| 2026-05-06 14:56 | 54.45545 | 38.52065 | 38858 ft | 448 kts | 103° |
| 2026-05-06 14:56 | 54.44178 | 38.62577 | 38849 ft | 453 kts | 103° |
| 2026-05-06 14:57 | 54.42781 | 38.73144 | 38850 ft | 459 kts | 104° |
| 2026-05-06 14:57 | 54.41345 | 38.83896 | 38844 ft | 465 kts | 104° |
| 2026-05-06 14:58 | 54.39880 | 38.94790 | 38845 ft | 471 kts | 104° |
| 2026-05-06 14:58 | 54.38036 | 39.05615 | 38843 ft | 476 kts | 111° |
| 2026-05-06 14:59 | 54.35593 | 39.16262 | 38842 ft | 482 kts | 113° |
| 2026-05-06 14:59 | 54.33012 | 39.26930 | 38838 ft | 488 kts | 114° |
| 2026-05-06 15:00 | 54.30376 | 39.37709 | 38839 ft | 493 kts | 114° |
| 2026-05-06 15:00 | 54.27725 | 39.48550 | 38836 ft | 490 kts | 114° |
| 2026-05-06 15:00 | 54.26427 | 39.53862 | 38833 ft | 477 kts | 114° |
| 2026-05-06 15:01 | 54.25161 | 39.59035 | 38833 ft | 466 kts | 114° |
| 2026-05-06 15:01 | 54.22682 | 39.69120 | 38839 ft | 458 kts | 114° |
| 2026-05-06 15:02 | 54.20219 | 39.79084 | 38841 ft | 458 kts | 114° |
| 2026-05-06 15:02 | 54.17730 | 39.89108 | 38840 ft | 459 kts | 114° |
| 2026-05-06 15:03 | 54.15246 | 39.99130 | 38897 ft | 458 kts | 114° |
| 2026-05-06 15:03 | 54.12742 | 40.09138 | 38843 ft | 459 kts | 114° |
| 2026-05-06 15:04 | 54.10651 | 40.19447 | 38836 ft | 461 kts | 108° |
| 2026-05-06 15:04 | 54.08802 | 40.29899 | 38840 ft | 461 kts | 107° |
| 2026-05-06 15:05 | 54.06993 | 40.40379 | 38843 ft | 461 kts | 107° |
| 2026-05-06 15:05 | 54.05174 | 40.50843 | 38842 ft | 461 kts | 108° |
| 2026-05-06 15:06 | 54.03350 | 40.61223 | 38845 ft | 461 kts | 108° |
| 2026-05-06 15:06 | 54.01498 | 40.71674 | 38844 ft | 461 kts | 108° |
| 2026-05-06 15:07 | 53.99640 | 40.82097 | 38848 ft | 460 kts | 108° |
| 2026-05-06 15:07 | 53.97775 | 40.92502 | 38849 ft | 460 kts | 108° |
| 2026-05-06 15:08 | 53.95904 | 41.02891 | 38842 ft | 460 kts | 108° |
| 2026-05-06 15:08 | 53.94146 | 41.13268 | 38843 ft | 460 kts | 106° |
| 2026-05-06 15:09 | 53.92446 | 41.23741 | 38841 ft | 460 kts | 106° |
| 2026-05-06 15:09 | 53.90737 | 41.34205 | 38842 ft | 460 kts | 106° |
| 2026-05-06 15:10 | 53.89010 | 41.44641 | 38845 ft | 459 kts | 107° |
| 2026-05-06 15:10 | 53.87266 | 41.55075 | 38843 ft | 460 kts | 107° |
| 2026-05-06 15:11 | 53.85509 | 41.65513 | 38843 ft | 461 kts | 107° |
| 2026-05-06 15:11 | 53.83742 | 41.75950 | 38839 ft | 461 kts | 107° |
| 2026-05-06 15:12 | 53.81975 | 41.86296 | 38843 ft | 460 kts | 107° |
| 2026-05-06 15:12 | 53.80185 | 41.96696 | 38843 ft | 460 kts | 107° |
| 2026-05-06 15:13 | 53.78384 | 42.07101 | 38845 ft | 460 kts | 107° |
| 2026-05-06 15:13 | 53.76747 | 42.16493 | 38845 ft | 460 kts | 107° |
| 2026-05-06 15:14 | 53.74932 | 42.26871 | 38845 ft | 460 kts | 107° |
| 2026-05-06 15:14 | 53.73110 | 42.37234 | 38845 ft | 460 kts | 107° |
| 2026-05-06 15:15 | 53.71280 | 42.47578 | 38848 ft | 460 kts | 108° |
| 2026-05-06 15:15 | 53.69219 | 42.57762 | 38847 ft | 458 kts | 117° |
| 2026-05-06 15:16 | 53.65681 | 42.66589 | 38848 ft | 453 kts | 136° |
| 2026-05-06 15:16 | 53.63315 | 42.70074 | 38851 ft | 451 kts | 147° |
| 2026-05-06 15:16 | 53.60634 | 42.72770 | 38837 ft | 448 kts | 157° |
| 2026-05-06 15:16 | 53.57720 | 42.74574 | 38814 ft | 446 kts | 168° |
| 2026-05-06 15:17 | 53.54661 | 42.75409 | 38757 ft | 445 kts | 179° |
| 2026-05-06 15:17 | 53.48573 | 42.74085 | 38673 ft | 442 kts | 201° |
| 2026-05-06 15:18 | 53.43087 | 42.70918 | 38680 ft | 442 kts | 195° |
| 2026-05-06 15:18 | 53.36995 | 42.69146 | 38727 ft | 448 kts | 185° |
| 2026-05-06 15:19 | 53.30719 | 42.69293 | 38787 ft | 455 kts | 174° |
| 2026-05-06 15:19 | 53.24498 | 42.71558 | 38854 ft | 461 kts | 162° |
| 2026-05-06 15:20 | 53.19667 | 42.75078 | 38900 ft | 452 kts | 151° |
| 2026-05-06 15:20 | 53.14610 | 42.81239 | 38931 ft | 450 kts | 137° |
| 2026-05-06 15:21 | 53.10692 | 42.89363 | 38986 ft | 452 kts | 121° |
| 2026-05-06 15:21 | 53.08536 | 42.99088 | 38886 ft | 450 kts | 94° |
| 2026-05-06 15:21 | 53.08715 | 43.04262 | 38865 ft | 450 kts | 80° |
| 2026-05-06 15:22 | 53.09044 | 43.09454 | 38882 ft | 452 kts | 86° |
| 2026-05-06 15:22 | 53.08499 | 43.19813 | 38868 ft | 456 kts | 107° |
| 2026-05-06 15:23 | 53.05727 | 43.29273 | 38880 ft | 459 kts | 129° |
| 2026-05-06 15:23 | 53.03555 | 43.33144 | 38867 ft | 460 kts | 141° |
| 2026-05-06 15:23 | 53.00948 | 43.36238 | 38865 ft | 461 kts | 152° |
| 2026-05-06 15:24 | 52.95069 | 43.40612 | 38869 ft | 466 kts | 160° |
| 2026-05-06 15:24 | 52.88918 | 43.44224 | 38875 ft | 472 kts | 161° |
| 2026-05-06 15:25 | 52.82743 | 43.47835 | 38867 ft | 469 kts | 161° |
| 2026-05-06 15:25 | 52.76675 | 43.51511 | 38890 ft | 461 kts | 160° |
| 2026-05-06 15:26 | 52.70653 | 43.55216 | 39121 ft | 461 kts | 160° |
| 2026-05-06 15:26 | 52.67644 | 43.57070 | 39255 ft | 461 kts | 160° |
| 2026-05-06 15:26 | 52.64641 | 43.58917 | 39371 ft | 460 kts | 160° |
| 2026-05-06 15:26 | 52.61637 | 43.60761 | 39477 ft | 460 kts | 160° |
| 2026-05-06 15:27 | 52.58635 | 43.62598 | 39581 ft | 461 kts | 160° |
| 2026-05-06 15:27 | 52.55629 | 43.64436 | 39688 ft | 461 kts | 160° |
| 2026-05-06 15:27 | 52.52621 | 43.66271 | 39791 ft | 460 kts | 160° |
| 2026-05-06 15:28 | 52.47232 | 43.69550 | 39963 ft | 461 kts | 160° |
| 2026-05-06 15:28 | 52.44616 | 43.71140 | 40042 ft | 461 kts | 160° |
| 2026-05-06 15:29 | 52.42357 | 43.72510 | 40118 ft | 461 kts | 160° |
| 2026-05-06 15:29 | 52.36340 | 43.76153 | 40246 ft | 462 kts | 160° |
| 2026-05-06 15:30 | 52.30274 | 43.79815 | 40316 ft | 465 kts | 160° |
| 2026-05-06 15:30 | 52.24218 | 43.83462 | 40386 ft | 468 kts | 160° |
| 2026-05-06 15:31 | 52.18089 | 43.87141 | 40451 ft | 470 kts | 160° |
| 2026-05-06 15:31 | 52.11922 | 43.90831 | 40526 ft | 473 kts | 160° |
| 2026-05-06 15:32 | 52.02609 | 43.96384 | 40624 ft | 477 kts | 160° |
| 2026-05-06 15:32 | 51.96362 | 44.00096 | 40692 ft | 479 kts | 160° |
| 2026-05-06 15:33 | 51.90124 | 44.03791 | 40751 ft | 482 kts | 160° |
| 2026-05-06 15:33 | 51.83812 | 44.07519 | 40852 ft | 483 kts | 160° |
| 2026-05-06 15:34 | 51.77488 | 44.11243 | 40879 ft | 484 kts | 160° |
| 2026-05-06 15:34 | 51.71150 | 44.14963 | 40880 ft | 484 kts | 160° |
| 2026-05-06 15:35 | 51.64820 | 44.18668 | 40880 ft | 484 kts | 160° |
| 2026-05-06 15:35 | 51.58506 | 44.22352 | 40880 ft | 486 kts | 160° |
| 2026-05-06 15:36 | 51.52153 | 44.26048 | 40876 ft | 486 kts | 160° |
| 2026-05-06 15:36 | 51.45793 | 44.29739 | 40879 ft | 485 kts | 160° |
| 2026-05-06 15:37 | 51.39431 | 44.33418 | 40879 ft | 485 kts | 160° |
| 2026-05-06 15:37 | 51.33074 | 44.37084 | 40877 ft | 486 kts | 160° |
| 2026-05-06 15:38 | 51.26716 | 44.40740 | 40875 ft | 486 kts | 160° |
| 2026-05-06 15:38 | 51.20335 | 44.44382 | 40878 ft | 487 kts | 162° |
| 2026-05-06 15:39 | 51.13710 | 44.46424 | 40878 ft | 486 kts | 178° |
| 2026-05-06 15:39 | 51.06994 | 44.46232 | 40880 ft | 484 kts | 183° |
| 2026-05-06 15:40 | 51.00277 | 44.45564 | 40883 ft | 483 kts | 184° |
| 2026-05-06 15:40 | 50.93559 | 44.44848 | 40889 ft | 483 kts | 184° |
| 2026-05-06 15:41 | 50.86852 | 44.44187 | 40885 ft | 483 kts | 183° |
| 2026-05-06 15:41 | 50.80139 | 44.43558 | 40894 ft | 483 kts | 183° |
| 2026-05-06 15:42 | 50.73427 | 44.42938 | 40893 ft | 483 kts | 183° |
| 2026-05-06 15:42 | 50.66746 | 44.42323 | 40893 ft | 483 kts | 183° |
| 2026-05-06 15:43 | 50.59965 | 44.41699 | 40901 ft | 487 kts | 183° |
| 2026-05-06 15:43 | 50.53260 | 44.41082 | 40899 ft | 485 kts | 183° |
| 2026-05-06 15:44 | 50.46516 | 44.40465 | 40900 ft | 485 kts | 183° |
| 2026-05-06 15:44 | 50.39786 | 44.39849 | 40902 ft | 485 kts | 183° |
| 2026-05-06 15:45 | 50.33044 | 44.39235 | 40904 ft | 485 kts | 183° |
| 2026-05-06 15:45 | 50.26294 | 44.38622 | 40908 ft | 485 kts | 183° |
| 2026-05-06 15:46 | 50.19547 | 44.38011 | 40904 ft | 486 kts | 183° |
| 2026-05-06 15:46 | 50.12784 | 44.37401 | 40907 ft | 487 kts | 183° |
| 2026-05-06 15:47 | 50.06036 | 44.36792 | 40910 ft | 486 kts | 183° |
| 2026-05-06 15:47 | 49.99321 | 44.36189 | 40911 ft | 486 kts | 183° |
| 2026-05-06 15:48 | 49.92571 | 44.35584 | 40912 ft | 485 kts | 183° |
| 2026-05-06 15:48 | 49.85807 | 44.34981 | 40913 ft | 487 kts | 183° |
| 2026-05-06 15:49 | 49.79047 | 44.34379 | 40909 ft | 486 kts | 183° |
| 2026-05-06 15:49 | 49.72269 | 44.33777 | 40919 ft | 488 kts | 183° |
| 2026-05-06 15:50 | 49.65500 | 44.33177 | 40918 ft | 487 kts | 183° |
| 2026-05-06 15:50 | 49.58740 | 44.32979 | 40918 ft | 487 kts | 174° |
| 2026-05-06 15:51 | 49.52208 | 44.35363 | 40923 ft | 486 kts | 160° |
| 2026-05-06 15:51 | 49.45915 | 44.39176 | 40926 ft | 486 kts | 157° |
| 2026-05-06 15:52 | 49.39676 | 44.43234 | 40923 ft | 487 kts | 157° |
| 2026-05-06 15:52 | 49.33434 | 44.47267 | 40932 ft | 486 kts | 157° |
| 2026-05-06 15:53 | 49.27224 | 44.51214 | 40931 ft | 486 kts | 157° |
| 2026-05-06 15:53 | 49.20970 | 44.55152 | 40935 ft | 485 kts | 158° |
| 2026-05-06 15:54 | 49.14702 | 44.59087 | 40931 ft | 486 kts | 158° |
| 2026-05-06 15:54 | 49.08448 | 44.63003 | 40939 ft | 486 kts | 158° |
| 2026-05-06 15:55 | 49.02181 | 44.66918 | 40933 ft | 486 kts | 158° |
| 2026-05-06 15:55 | 48.95922 | 44.70818 | 40938 ft | 486 kts | 158° |
| 2026-05-06 15:56 | 48.89694 | 44.74689 | 40934 ft | 486 kts | 158° |
| 2026-05-06 15:56 | 48.83482 | 44.78760 | 40928 ft | 486 kts | 152° |
| 2026-05-06 15:57 | 48.77530 | 44.83662 | 40932 ft | 487 kts | 151° |
| 2026-05-06 15:57 | 48.65473 | 44.93974 | 41319 ft | 476 kts | 150° |
| 2026-05-06 15:58 | 48.62613 | 44.96432 | 41695 ft | 471 kts | 150° |
| 2026-05-06 15:58 | 48.60454 | 44.98276 | 41995 ft | 465 kts | 151° |
| 2026-05-06 15:58 | 48.54799 | 45.03133 | 41731 ft | 474 kts | 150° |
| 2026-05-06 15:59 | 48.51909 | 45.05612 | 41474 ft | 481 kts | 150° |
| 2026-05-06 15:59 | 48.48983 | 45.08113 | 41228 ft | 485 kts | 150° |
| 2026-05-06 15:59 | 48.46032 | 45.10625 | 40991 ft | 485 kts | 150° |
| 2026-05-06 15:59 | 48.43092 | 45.13121 | 40911 ft | 484 kts | 150° |
| 2026-05-06 16:00 | 48.37219 | 45.18090 | 40912 ft | 484 kts | 150° |
| 2026-05-06 16:00 | 48.31344 | 45.23045 | 40912 ft | 484 kts | 150° |
| 2026-05-06 16:01 | 48.25477 | 45.27981 | 40908 ft | 484 kts | 151° |
| 2026-05-06 16:01 | 48.19601 | 45.32912 | 40909 ft | 484 kts | 151° |
| 2026-05-06 16:02 | 48.13759 | 45.37801 | 40908 ft | 484 kts | 151° |
| 2026-05-06 16:02 | 48.07883 | 45.42706 | 40903 ft | 484 kts | 151° |
| 2026-05-06 16:03 | 48.01999 | 45.47606 | 40900 ft | 483 kts | 151° |
| 2026-05-06 16:03 | 47.96120 | 45.52487 | 40904 ft | 483 kts | 151° |
| 2026-05-06 16:04 | 47.90247 | 45.57351 | 40900 ft | 483 kts | 151° |
| 2026-05-06 16:04 | 47.84370 | 45.62205 | 40894 ft | 483 kts | 151° |
| 2026-05-06 16:05 | 47.78490 | 45.67049 | 40892 ft | 483 kts | 151° |
| 2026-05-06 16:05 | 47.72600 | 45.71889 | 40891 ft | 483 kts | 151° |
| 2026-05-06 16:06 | 47.67706 | 45.75901 | 40894 ft | 483 kts | 151° |
| 2026-05-06 16:06 | 47.60861 | 45.81498 | 40887 ft | 483 kts | 152° |
| 2026-05-06 16:07 | 47.54961 | 45.86308 | 40882 ft | 483 kts | 152° |
| 2026-05-06 16:07 | 47.50028 | 45.90321 | 40890 ft | 483 kts | 152° |
| 2026-05-06 16:08 | 47.44168 | 45.95076 | 40887 ft | 483 kts | 152° |
| 2026-05-06 16:08 | 47.38270 | 45.99850 | 40885 ft | 483 kts | 152° |
| 2026-05-06 16:09 | 47.32367 | 46.04616 | 40882 ft | 483 kts | 152° |
| 2026-05-06 16:09 | 47.26461 | 46.09371 | 40893 ft | 483 kts | 152° |
| 2026-05-06 16:10 | 47.20550 | 46.14120 | 40886 ft | 484 kts | 152° |
| 2026-05-06 16:10 | 47.14638 | 46.18855 | 40887 ft | 484 kts | 152° |
| 2026-05-06 16:11 | 47.08793 | 46.23622 | 40895 ft | 484 kts | 148° |
| 2026-05-06 16:11 | 47.03677 | 46.30015 | 40890 ft | 485 kts | 130° |
| 2026-05-06 16:12 | 46.99758 | 46.38082 | 40902 ft | 487 kts | 124° |
| 2026-05-06 16:12 | 46.96130 | 46.46483 | 40898 ft | 488 kts | 123° |
| 2026-05-06 16:13 | 46.92527 | 46.54913 | 40899 ft | 488 kts | 123° |
| 2026-05-06 16:13 | 46.88905 | 46.63264 | 40890 ft | 488 kts | 124° |
| 2026-05-06 16:14 | 46.85240 | 46.71624 | 40893 ft | 489 kts | 124° |
| 2026-05-06 16:14 | 46.81563 | 46.79967 | 40896 ft | 489 kts | 124° |
| 2026-05-06 16:15 | 46.77876 | 46.88310 | 40891 ft | 489 kts | 124° |
| 2026-05-06 16:15 | 46.74188 | 46.96636 | 40892 ft | 489 kts | 124° |
| 2026-05-06 16:16 | 46.70489 | 47.04960 | 40891 ft | 489 kts | 124° |
| 2026-05-06 16:16 | 46.66820 | 47.13296 | 40890 ft | 489 kts | 124° |
| 2026-05-06 16:17 | 46.63179 | 47.21670 | 40895 ft | 489 kts | 124° |
| 2026-05-06 16:17 | 46.59558 | 47.29980 | 40895 ft | 490 kts | 124° |
| 2026-05-06 16:18 | 46.55901 | 47.38333 | 40894 ft | 490 kts | 124° |
| 2026-05-06 16:18 | 46.52231 | 47.46681 | 40894 ft | 490 kts | 124° |
| 2026-05-06 16:19 | 46.48553 | 47.55019 | 40887 ft | 490 kts | 125° |
| 2026-05-06 16:19 | 46.44871 | 47.63342 | 40893 ft | 490 kts | 125° |
| 2026-05-06 16:20 | 46.41178 | 47.71668 | 40894 ft | 491 kts | 125° |
| 2026-05-06 16:20 | 46.37505 | 47.79925 | 40894 ft | 490 kts | 125° |
| 2026-05-06 16:21 | 46.33803 | 47.88219 | 40881 ft | 491 kts | 125° |
| 2026-05-06 16:21 | 46.30116 | 47.96520 | 40882 ft | 491 kts | 122° |
| 2026-05-06 16:22 | 46.27477 | 48.05653 | 40887 ft | 495 kts | 108° |
| 2026-05-06 16:22 | 46.25829 | 48.15337 | 40883 ft | 497 kts | 105° |
| 2026-05-06 16:23 | 46.24369 | 48.25118 | 40887 ft | 498 kts | 104° |
| 2026-05-06 16:23 | 46.22905 | 48.34916 | 40880 ft | 498 kts | 105° |
| 2026-05-06 16:24 | 46.21355 | 48.44600 | 40878 ft | 496 kts | 110° |
| 2026-05-06 16:24 | 46.18466 | 48.53530 | 40873 ft | 488 kts | 128° |
| 2026-05-06 16:25 | 46.13796 | 48.60476 | 40871 ft | 480 kts | 147° |
| 2026-05-06 16:25 | 46.07862 | 48.64663 | 40874 ft | 474 kts | 164° |
| 2026-05-06 16:26 | 46.01528 | 48.67337 | 40875 ft | 475 kts | 167° |
| 2026-05-06 16:26 | 45.95133 | 48.69787 | 40872 ft | 475 kts | 167° |
| 2026-05-06 16:27 | 45.88788 | 48.72251 | 40874 ft | 475 kts | 166° |
| 2026-05-06 16:27 | 45.82409 | 48.74781 | 40873 ft | 476 kts | 166° |
| 2026-05-06 16:28 | 45.76018 | 48.77333 | 40883 ft | 476 kts | 166° |
| 2026-05-06 16:28 | 45.69631 | 48.79879 | 40880 ft | 475 kts | 166° |
| 2026-05-06 16:29 | 45.63263 | 48.82409 | 40883 ft | 474 kts | 166° |
| 2026-05-06 16:29 | 45.56907 | 48.84927 | 40883 ft | 474 kts | 166° |
| 2026-05-06 16:30 | 45.51620 | 48.87016 | 40893 ft | 474 kts | 166° |
| 2026-05-06 16:30 | 45.44237 | 48.89927 | 40892 ft | 474 kts | 167° |
| 2026-05-06 16:31 | 45.37886 | 48.92425 | 40900 ft | 474 kts | 167° |
| 2026-05-06 16:31 | 45.31522 | 48.94922 | 40903 ft | 474 kts | 167° |
| 2026-05-06 16:32 | 45.25158 | 48.97414 | 40901 ft | 474 kts | 167° |
| 2026-05-06 16:32 | 45.18803 | 48.99896 | 40911 ft | 473 kts | 167° |
| 2026-05-06 16:33 | 45.12445 | 49.02373 | 40911 ft | 473 kts | 167° |
| 2026-05-06 16:34 | 45.02917 | 49.06075 | 40916 ft | 474 kts | 167° |
| 2026-05-06 16:34 | 44.96559 | 49.08541 | 40919 ft | 474 kts | 167° |
| 2026-05-06 16:35 | 44.90205 | 49.10997 | 40924 ft | 473 kts | 167° |
| 2026-05-06 16:35 | 44.83880 | 49.13435 | 40918 ft | 475 kts | 167° |
| 2026-05-06 16:36 | 44.77494 | 49.15891 | 40931 ft | 476 kts | 167° |
| 2026-05-06 16:36 | 44.71107 | 49.18342 | 40938 ft | 476 kts | 167° |
| 2026-05-06 16:37 | 44.64706 | 49.20793 | 40938 ft | 476 kts | 167° |
| 2026-05-06 16:37 | 44.58309 | 49.23239 | 40942 ft | 476 kts | 168° |
| 2026-05-06 16:38 | 44.51919 | 49.25675 | 40941 ft | 476 kts | 168° |
| 2026-05-06 16:38 | 44.45531 | 49.28106 | 40938 ft | 471 kts | 168° |
| 2026-05-06 16:39 | 44.39181 | 49.30516 | 40949 ft | 475 kts | 168° |
| 2026-05-06 16:39 | 44.32829 | 49.32921 | 40955 ft | 477 kts | 168° |
| 2026-05-06 16:40 | 44.26406 | 49.35347 | 40954 ft | 478 kts | 168° |
| 2026-05-06 16:40 | 44.19969 | 49.37774 | 40950 ft | 477 kts | 168° |
| 2026-05-06 16:41 | 44.13555 | 49.40187 | 40959 ft | 477 kts | 168° |
| 2026-05-06 16:41 | 44.07172 | 49.42582 | 40966 ft | 477 kts | 168° |
| 2026-05-06 16:42 | 44.00756 | 49.44984 | 40970 ft | 477 kts | 169° |
| 2026-05-06 16:42 | 43.94248 | 49.46249 | 40968 ft | 470 kts | 184° |
| 2026-05-06 16:43 | 43.87880 | 49.44776 | 40975 ft | 463 kts | 202° |
| 2026-05-06 16:43 | 43.82273 | 49.40527 | 40973 ft | 460 kts | 220° |
| 2026-05-06 16:44 | 43.77830 | 49.34184 | 40973 ft | 459 kts | 230° |
| 2026-05-06 16:44 | 43.73795 | 49.27332 | 40980 ft | 459 kts | 230° |
| 2026-05-06 16:45 | 43.69796 | 49.20447 | 40985 ft | 459 kts | 231° |
| 2026-05-06 16:45 | 43.65787 | 49.13643 | 40988 ft | 459 kts | 230° |
| 2026-05-06 16:46 | 43.61727 | 49.06832 | 40992 ft | 458 kts | 230° |
| 2026-05-06 16:46 | 43.57666 | 49.00052 | 40990 ft | 458 kts | 230° |
| 2026-05-06 16:47 | 43.53600 | 48.93279 | 40990 ft | 458 kts | 230° |
| 2026-05-06 16:47 | 43.49528 | 48.86508 | 40992 ft | 458 kts | 230° |
| 2026-05-06 16:48 | 43.45454 | 48.79748 | 40996 ft | 458 kts | 230° |
| 2026-05-06 16:48 | 43.41381 | 48.73007 | 40998 ft | 458 kts | 230° |
| 2026-05-06 16:49 | 43.37334 | 48.66322 | 40998 ft | 458 kts | 230° |
| 2026-05-06 16:49 | 43.33252 | 48.59596 | 40999 ft | 458 kts | 230° |
| 2026-05-06 16:50 | 43.29164 | 48.52876 | 41008 ft | 458 kts | 230° |
| 2026-05-06 16:50 | 43.25074 | 48.46168 | 41009 ft | 458 kts | 230° |
| 2026-05-06 16:51 | 43.21117 | 48.39329 | 41013 ft | 458 kts | 233° |
| 2026-05-06 16:51 | 43.17438 | 48.32193 | 41009 ft | 458 kts | 234° |
| 2026-05-06 16:52 | 43.13822 | 48.25064 | 41014 ft | 458 kts | 234° |
| 2026-05-06 16:52 | 43.10151 | 48.17924 | 41018 ft | 458 kts | 234° |
| 2026-05-06 16:53 | 43.06456 | 48.10816 | 41019 ft | 458 kts | 234° |
| 2026-05-06 16:53 | 43.02749 | 48.03722 | 41018 ft | 458 kts | 234° |
| 2026-05-06 16:54 | 42.99037 | 47.96632 | 41017 ft | 458 kts | 234° |
| 2026-05-06 16:54 | 42.95324 | 47.89555 | 41022 ft | 458 kts | 234° |
| 2026-05-06 16:55 | 42.91632 | 47.82532 | 41020 ft | 458 kts | 234° |
| 2026-05-06 16:55 | 42.87909 | 47.75469 | 41021 ft | 458 kts | 234° |
| 2026-05-06 16:56 | 42.84202 | 47.68392 | 41020 ft | 458 kts | 237° |
| 2026-05-06 16:56 | 42.81781 | 47.61975 | 41021 ft | 460 kts | 249° |
| 2026-05-06 16:57 | 42.79560 | 47.52244 | 41022 ft | 461 kts | 252° |
| 2026-05-06 16:57 | 42.78153 | 47.45228 | 41033 ft | 461 kts | 253° |
| 2026-05-06 16:58 | 42.76473 | 47.36791 | 41043 ft | 461 kts | 253° |
| 2026-05-06 16:58 | 42.74763 | 47.28392 | 41061 ft | 461 kts | 252° |
| 2026-05-06 16:59 | 42.73047 | 47.20056 | 41069 ft | 459 kts | 252° |
| 2026-05-06 16:59 | 42.71322 | 47.11717 | 40829 ft | 456 kts | 252° |
| 2026-05-06 16:59 | 42.70460 | 47.07564 | 40328 ft | 456 kts | 252° |
| 2026-05-06 17:00 | 42.69596 | 47.03418 | 40123 ft | 455 kts | 252° |
| 2026-05-06 17:00 | 42.67865 | 46.95126 | 40085 ft | 457 kts | 252° |
| 2026-05-06 17:01 | 42.66120 | 46.86817 | 40086 ft | 457 kts | 252° |
| 2026-05-06 17:01 | 42.64367 | 46.78501 | 40081 ft | 458 kts | 252° |
| 2026-05-06 17:02 | 42.62606 | 46.70188 | 40089 ft | 458 kts | 252° |
| 2026-05-06 17:02 | 42.60851 | 46.61931 | 40097 ft | 458 kts | 252° |
| 2026-05-06 17:03 | 42.59081 | 46.53639 | 40092 ft | 457 kts | 252° |